sensor_id;sensor_type;location;lat;lon;timestamp;temperature;humidity
44435;DHT22;30138;20.964;105.830;2023-04-21T00:04:54;29.00;99.90
44435;DHT22;30138;20.964;105.830;2023-04-21T00:10:01;28.90;99.90
44435;DHT22;30138;20.964;105.830;2023-04-21T00:15:08;29.00;99.90
44435;DHT22;30138;20.964;105.830;2023-04-21T00:20:17;29.00;99.90
44435;DHT22;30138;20.964;105.830;2023-04-21T00:25:25;29.00;99.90
44435;DHT22;30138;20.964;105.830;2023-04-21T00:30:32;29.00;99.90
44435;DHT22;30138;20.964;105.830;2023-04-21T00:35:42;29.00;99.90
44435;DHT22;30138;20.964;105.830;2023-04-21T00:40:50;29.00;99.90
44435;DHT22;30138;20.964;105.830;2023-04-21T00:45:57;29.00;99.90
44435;DHT22;30138;20.964;105.830;2023-04-21T00:51:06;29.00;99.90
44435;DHT22;30138;20.964;105.830;2023-04-21T00:56:14;29.00;99.90
44435;DHT22;30138;20.964;105.830;2023-04-21T01:01:22;29.00;99.90
44435;DHT22;30138;20.964;105.830;2023-04-21T01:06:31;29.00;99.90
44435;DHT22;30138;20.964;105.830;2023-04-21T01:11:39;29.00;99.90
44435;DHT22;30138;20.964;105.830;2023-04-21T01:16:46;29.00;99.90
44435;DHT22;30138;20.964;105.830;2023-04-21T01:21:57;29.00;99.90
44435;DHT22;30138;20.964;105.830;2023-04-21T01:27:09;29.00;99.90
44435;DHT22;30138;20.964;105.830;2023-04-21T01:32:18;29.00;99.90
44435;DHT22;30138;20.964;105.830;2023-04-21T01:37:31;29.00;99.90
44435;DHT22;30138;20.964;105.830;2023-04-21T01:42:40;29.00;99.90
44435;DHT22;30138;20.964;105.830;2023-04-21T01:47:49;29.00;99.90
44435;DHT22;30138;20.964;105.830;2023-04-21T01:52:59;29.10;99.90
44435;DHT22;30138;20.964;105.830;2023-04-21T01:58:06;29.10;99.90
44435;DHT22;30138;20.964;105.830;2023-04-21T02:03:15;29.00;99.90
44435;DHT22;30138;20.964;105.830;2023-04-21T02:08:25;29.10;99.90
44435;DHT22;30138;20.964;105.830;2023-04-21T02:13:32;29.10;99.90
44435;DHT22;30138;20.964;105.830;2023-04-21T02:18:40;29.10;99.90
44435;DHT22;30138;20.964;105.830;2023-04-21T02:23:49;29.10;99.90
44435;DHT22;30138;20.964;105.830;2023-04-21T02:28:56;29.10;99.90
44435;DHT22;30138;20.964;105.830;2023-04-21T02:34:03;29.10;99.90
44435;DHT22;30138;20.964;105.830;2023-04-21T02:39:12;29.10;99.90
44435;DHT22;30138;20.964;105.830;2023-04-21T02:44:18;29.00;99.90
44435;DHT22;30138;20.964;105.830;2023-04-21T02:49:25;29.10;99.90
44435;DHT22;30138;20.964;105.830;2023-04-21T02:54:34;29.10;99.90
44435;DHT22;30138;20.964;105.830;2023-04-21T02:59:43;29.10;99.90
44435;DHT22;30138;20.964;105.830;2023-04-21T03:04:50;29.10;99.90
44435;DHT22;30138;20.964;105.830;2023-04-21T03:10:00;29.10;99.90
44435;DHT22;30138;20.964;105.830;2023-04-21T03:15:09;29.10;99.90
44435;DHT22;30138;20.964;105.830;2023-04-21T03:20:19;29.10;99.90
44435;DHT22;30138;20.964;105.830;2023-04-21T03:25:28;29.10;99.90
44435;DHT22;30138;20.964;105.830;2023-04-21T03:30:36;29.10;99.90
44435;DHT22;30138;20.964;105.830;2023-04-21T03:35:43;29.20;99.90
44435;DHT22;30138;20.964;105.830;2023-04-21T03:40:53;29.30;99.90
44435;DHT22;30138;20.964;105.830;2023-04-21T03:46:00;29.30;99.90
44435;DHT22;30138;20.964;105.830;2023-04-21T03:51:07;29.40;99.90
44435;DHT22;30138;20.964;105.830;2023-04-21T03:56:16;29.40;99.90
44435;DHT22;30138;20.964;105.830;2023-04-21T04:01:23;29.40;99.90
44435;DHT22;30138;20.964;105.830;2023-04-21T04:06:30;29.40;99.90
44435;DHT22;30138;20.964;105.830;2023-04-21T04:11:39;29.40;99.90
44435;DHT22;30138;20.964;105.830;2023-04-21T04:16:46;29.50;99.90
44435;DHT22;30138;20.964;105.830;2023-04-21T04:21:54;29.50;99.90
44435;DHT22;30138;20.964;105.830;2023-04-21T04:27:05;29.60;99.90
44435;DHT22;30138;20.964;105.830;2023-04-21T04:32:12;29.60;99.90
44435;DHT22;30138;20.964;105.830;2023-04-21T04:37:19;29.60;99.90
44435;DHT22;30138;20.964;105.830;2023-04-21T04:42:29;29.60;99.90
44435;DHT22;30138;20.964;105.830;2023-04-21T04:47:37;29.70;99.90
44435;DHT22;30138;20.964;105.830;2023-04-21T04:52:43;29.70;99.90
44435;DHT22;30138;20.964;105.830;2023-04-21T04:57:55;29.70;99.90
44435;DHT22;30138;20.964;105.830;2023-04-21T05:03:03;29.70;99.90
44435;DHT22;30138;20.964;105.830;2023-04-21T05:08:13;29.70;99.90
44435;DHT22;30138;20.964;105.830;2023-04-21T05:13:25;29.80;99.90
44435;DHT22;30138;20.964;105.830;2023-04-21T05:18:32;29.80;99.90
44435;DHT22;30138;20.964;105.830;2023-04-21T05:23:40;29.80;99.90
44435;DHT22;30138;20.964;105.830;2023-04-21T05:28:50;29.80;99.90
44435;DHT22;30138;20.964;105.830;2023-04-21T05:33:58;29.90;99.90
44435;DHT22;30138;20.964;105.830;2023-04-21T05:39:06;29.90;99.90
44435;DHT22;30138;20.964;105.830;2023-04-21T05:44:16;29.90;99.90
44435;DHT22;30138;20.964;105.830;2023-04-21T05:49:23;29.90;99.90
44435;DHT22;30138;20.964;105.830;2023-04-21T05:54:31;29.90;99.90
44435;DHT22;30138;20.964;105.830;2023-04-21T05:59:41;30.00;99.90
44435;DHT22;30138;20.964;105.830;2023-04-21T06:04:48;30.00;99.90
44435;DHT22;30138;20.964;105.830;2023-04-21T06:09:56;30.00;99.90
44435;DHT22;30138;20.964;105.830;2023-04-21T06:15:07;30.00;99.90
44435;DHT22;30138;20.964;105.830;2023-04-21T06:20:14;30.00;99.90
44435;DHT22;30138;20.964;105.830;2023-04-21T06:25:22;29.90;99.90
44435;DHT22;30138;20.964;105.830;2023-04-21T06:30:32;30.00;99.90
44435;DHT22;30138;20.964;105.830;2023-04-21T06:35:39;30.00;99.90
44435;DHT22;30138;20.964;105.830;2023-04-21T06:40:46;30.00;99.90
44435;DHT22;30138;20.964;105.830;2023-04-21T06:45:55;30.00;99.90
44435;DHT22;30138;20.964;105.830;2023-04-21T06:51:02;30.00;99.90
44435;DHT22;30138;20.964;105.830;2023-04-21T06:56:09;30.10;99.90
44435;DHT22;30138;20.964;105.830;2023-04-21T07:01:18;30.10;99.90
44435;DHT22;30138;20.964;105.830;2023-04-21T07:06:26;30.10;99.90
44435;DHT22;30138;20.964;105.830;2023-04-21T07:11:35;30.10;99.90
44435;DHT22;30138;20.964;105.830;2023-04-21T07:16:46;30.20;99.90
44435;DHT22;30138;20.964;105.830;2023-04-21T07:21:53;30.10;99.90
44435;DHT22;30138;20.964;105.830;2023-04-21T07:27:01;30.20;99.90
44435;DHT22;30138;20.964;105.830;2023-04-21T07:32:10;30.30;99.90
44435;DHT22;30138;20.964;105.830;2023-04-21T07:37:17;30.30;99.90
44435;DHT22;30138;20.964;105.830;2023-04-21T07:42:25;30.40;99.90
44435;DHT22;30138;20.964;105.830;2023-04-21T07:47:34;30.40;99.90
44435;DHT22;30138;20.964;105.830;2023-04-21T07:52:41;30.50;99.90
44435;DHT22;30138;20.964;105.830;2023-04-21T07:57:51;30.50;99.90
44435;DHT22;30138;20.964;105.830;2023-04-21T08:03:02;30.60;99.90
44435;DHT22;30138;20.964;105.830;2023-04-21T08:08:10;30.60;99.90
44435;DHT22;30138;20.964;105.830;2023-04-21T08:13:22;30.60;99.90
44435;DHT22;30138;20.964;105.830;2023-04-21T08:18:32;30.60;99.90
44435;DHT22;30138;20.964;105.830;2023-04-21T08:23:40;30.60;99.90
44435;DHT22;30138;20.964;105.830;2023-04-21T08:28:47;30.60;99.90
44435;DHT22;30138;20.964;105.830;2023-04-21T08:33:56;30.60;99.90
44435;DHT22;30138;20.964;105.830;2023-04-21T08:39:04;30.60;99.90
44435;DHT22;30138;20.964;105.830;2023-04-21T08:44:11;30.60;99.90
44435;DHT22;30138;20.964;105.830;2023-04-21T08:49:22;30.60;99.90
44435;DHT22;30138;20.964;105.830;2023-04-21T08:54:29;30.70;99.90
44435;DHT22;30138;20.964;105.830;2023-04-21T08:59:38;30.70;99.90
44435;DHT22;30138;20.964;105.830;2023-04-21T09:04:48;30.70;99.90
44435;DHT22;30138;20.964;105.830;2023-04-21T09:09:55;30.70;99.90
44435;DHT22;30138;20.964;105.830;2023-04-21T09:15:05;30.70;99.90
44435;DHT22;30138;20.964;105.830;2023-04-21T09:20:18;30.70;99.90
44435;DHT22;30138;20.964;105.830;2023-04-21T09:25:26;30.70;99.90
44435;DHT22;30138;20.964;105.830;2023-04-21T09:30:34;30.70;99.90
44435;DHT22;30138;20.964;105.830;2023-04-21T09:35:43;30.70;99.90
44435;DHT22;30138;20.964;105.830;2023-04-21T09:40:57;30.70;99.90
44435;DHT22;30138;20.964;105.830;2023-04-21T09:46:06;30.70;99.90
44435;DHT22;30138;20.964;105.830;2023-04-21T09:51:16;30.70;99.90
44435;DHT22;30138;20.964;105.830;2023-04-21T09:56:28;30.70;99.90
44435;DHT22;30138;20.964;105.830;2023-04-21T10:01:39;30.70;99.90
44435;DHT22;30138;20.964;105.830;2023-04-21T10:06:51;30.70;99.90
44435;DHT22;30138;20.964;105.830;2023-04-21T10:11:59;30.60;99.90
44435;DHT22;30138;20.964;105.830;2023-04-21T10:17:08;30.50;99.90
44435;DHT22;30138;20.964;105.830;2023-04-21T10:22:30;30.40;99.90
44435;DHT22;30138;20.964;105.830;2023-04-21T10:27:40;30.40;99.90
44435;DHT22;30138;20.964;105.830;2023-04-21T10:32:47;30.40;99.90
44435;DHT22;30138;20.964;105.830;2023-04-21T10:37:58;30.40;99.90
44435;DHT22;30138;20.964;105.830;2023-04-21T10:43:42;30.30;99.90
44435;DHT22;30138;20.964;105.830;2023-04-21T10:48:52;30.40;99.90
44435;DHT22;30138;20.964;105.830;2023-04-21T10:54:07;30.40;99.90
44435;DHT22;30138;20.964;105.830;2023-04-21T10:59:15;30.40;99.90
44435;DHT22;30138;20.964;105.830;2023-04-21T11:04:23;30.40;99.90
44435;DHT22;30138;20.964;105.830;2023-04-21T11:09:31;30.40;99.90
44435;DHT22;30138;20.964;105.830;2023-04-21T11:14:39;30.40;99.90
44435;DHT22;30138;20.964;105.830;2023-04-21T11:19:47;30.40;99.90
44435;DHT22;30138;20.964;105.830;2023-04-21T11:24:58;30.40;99.90
44435;DHT22;30138;20.964;105.830;2023-04-21T11:30:06;30.40;99.90
44435;DHT22;30138;20.964;105.830;2023-04-21T11:35:14;30.50;99.90
44435;DHT22;30138;20.964;105.830;2023-04-21T11:40:26;30.50;99.90
44435;DHT22;30138;20.964;105.830;2023-04-21T11:45:35;30.50;99.90
44435;DHT22;30138;20.964;105.830;2023-04-21T11:50:46;30.50;99.90
44435;DHT22;30138;20.964;105.830;2023-04-21T11:55:56;30.50;99.90
44435;DHT22;30138;20.964;105.830;2023-04-21T12:01:07;30.50;99.90
44435;DHT22;30138;20.964;105.830;2023-04-21T12:06:21;30.50;99.90
44435;DHT22;30138;20.964;105.830;2023-04-21T12:11:31;30.50;99.90
44435;DHT22;30138;20.964;105.830;2023-04-21T12:16:38;30.60;99.90
44435;DHT22;30138;20.964;105.830;2023-04-21T12:21:45;30.50;99.90
44435;DHT22;30138;20.964;105.830;2023-04-21T12:27:01;30.50;99.90
44435;DHT22;30138;20.964;105.830;2023-04-21T12:32:08;30.50;99.90
44435;DHT22;30138;20.964;105.830;2023-04-21T12:37:15;30.60;99.90
44435;DHT22;30138;20.964;105.830;2023-04-21T12:42:25;30.60;99.90
44435;DHT22;30138;20.964;105.830;2023-04-21T12:47:31;30.50;99.90
44435;DHT22;30138;20.964;105.830;2023-04-21T12:52:38;30.60;99.90
44435;DHT22;30138;20.964;105.830;2023-04-21T12:57:48;30.70;99.90
44435;DHT22;30138;20.964;105.830;2023-04-21T13:02:56;30.70;99.90
44435;DHT22;30138;20.964;105.830;2023-04-21T13:08:03;30.70;99.90
44435;DHT22;30138;20.964;105.830;2023-04-21T13:13:14;30.70;99.90
44435;DHT22;30138;20.964;105.830;2023-04-21T13:18:21;30.70;99.90
44435;DHT22;30138;20.964;105.830;2023-04-21T13:23:29;30.70;99.90
44435;DHT22;30138;20.964;105.830;2023-04-21T13:28:38;30.70;99.90
44435;DHT22;30138;20.964;105.830;2023-04-21T13:33:45;30.70;99.90
44435;DHT22;30138;20.964;105.830;2023-04-21T13:38:53;30.70;99.90
44435;DHT22;30138;20.964;105.830;2023-04-21T13:44:02;30.70;99.90
44435;DHT22;30138;20.964;105.830;2023-04-21T13:49:10;30.70;99.90
44435;DHT22;30138;20.964;105.830;2023-04-21T13:54:17;30.70;99.90
44435;DHT22;30138;20.964;105.830;2023-04-21T13:59:27;30.70;99.90
44435;DHT22;30138;20.964;105.830;2023-04-21T14:04:34;30.70;99.90
44435;DHT22;30138;20.964;105.830;2023-04-21T14:09:42;30.60;99.90
44435;DHT22;30138;20.964;105.830;2023-04-21T14:14:51;30.70;99.90
44435;DHT22;30138;20.964;105.830;2023-04-21T14:19:58;30.60;99.90
44435;DHT22;30138;20.964;105.830;2023-04-21T14:25:06;30.60;99.90
44435;DHT22;30138;20.964;105.830;2023-04-21T14:30:16;30.60;99.90
44435;DHT22;30138;20.964;105.830;2023-04-21T14:35:23;30.60;99.90
44435;DHT22;30138;20.964;105.830;2023-04-21T14:40:32;30.50;99.90
44435;DHT22;30138;20.964;105.830;2023-04-21T14:45:41;30.50;99.90
44435;DHT22;30138;20.964;105.830;2023-04-21T14:50:49;30.50;99.90
44435;DHT22;30138;20.964;105.830;2023-04-21T14:55:56;30.50;99.90
44435;DHT22;30138;20.964;105.830;2023-04-21T15:01:06;30.50;99.90
44435;DHT22;30138;20.964;105.830;2023-04-21T15:06:15;30.50;99.90
44435;DHT22;30138;20.964;105.830;2023-04-21T15:11:24;30.40;99.90
44435;DHT22;30138;20.964;105.830;2023-04-21T15:16:33;30.50;99.90
44435;DHT22;30138;20.964;105.830;2023-04-21T15:21:41;30.50;99.90
44435;DHT22;30138;20.964;105.830;2023-04-21T15:26:53;30.40;99.90
44435;DHT22;30138;20.964;105.830;2023-04-21T15:32:05;30.40;99.90
44435;DHT22;30138;20.964;105.830;2023-04-21T15:37:11;30.40;99.90
44435;DHT22;30138;20.964;105.830;2023-04-21T15:42:20;30.40;99.90
44435;DHT22;30138;20.964;105.830;2023-04-21T15:47:43;30.30;99.90
44435;DHT22;30138;20.964;105.830;2023-04-21T15:52:52;30.30;99.90
44435;DHT22;30138;20.964;105.830;2023-04-21T15:58:12;30.30;99.90
44435;DHT22;30138;20.964;105.830;2023-04-21T16:03:32;30.30;99.90
44435;DHT22;30138;20.964;105.830;2023-04-21T16:08:40;30.20;99.90
44435;DHT22;30138;20.964;105.830;2023-04-21T16:13:47;30.20;99.90
44435;DHT22;30138;20.964;105.830;2023-04-21T16:18:59;30.20;99.90
44435;DHT22;30138;20.964;105.830;2023-04-21T16:24:06;30.20;99.90
44435;DHT22;30138;20.964;105.830;2023-04-21T16:29:17;30.20;99.90
44435;DHT22;30138;20.964;105.830;2023-04-21T16:34:26;30.20;99.90
44435;DHT22;30138;20.964;105.830;2023-04-21T16:39:33;30.10;99.90
44435;DHT22;30138;20.964;105.830;2023-04-21T16:44:41;30.10;99.90
44435;DHT22;30138;20.964;105.830;2023-04-21T16:49:49;30.10;99.90
44435;DHT22;30138;20.964;105.830;2023-04-21T16:54:57;30.10;99.90
44435;DHT22;30138;20.964;105.830;2023-04-21T17:00:05;30.10;99.90
44435;DHT22;30138;20.964;105.830;2023-04-21T17:05:14;30.10;99.90
44435;DHT22;30138;20.964;105.830;2023-04-21T17:10:22;30.10;99.90
44435;DHT22;30138;20.964;105.830;2023-04-21T17:15:29;30.10;99.90
44435;DHT22;30138;20.964;105.830;2023-04-21T17:20:39;30.10;99.90
44435;DHT22;30138;20.964;105.830;2023-04-21T17:25:46;30.10;99.90
44435;DHT22;30138;20.964;105.830;2023-04-21T17:30:54;30.10;99.90
44435;DHT22;30138;20.964;105.830;2023-04-21T17:36:03;30.10;99.90
44435;DHT22;30138;20.964;105.830;2023-04-21T17:41:10;30.10;99.90
44435;DHT22;30138;20.964;105.830;2023-04-21T17:46:18;30.10;99.90
44435;DHT22;30138;20.964;105.830;2023-04-21T17:51:28;30.10;99.90
44435;DHT22;30138;20.964;105.830;2023-04-21T17:56:36;30.10;99.90
44435;DHT22;30138;20.964;105.830;2023-04-21T18:01:44;30.10;99.90
44435;DHT22;30138;20.964;105.830;2023-04-21T18:06:54;30.10;99.90
44435;DHT22;30138;20.964;105.830;2023-04-21T18:12:02;30.10;99.90
44435;DHT22;30138;20.964;105.830;2023-04-21T18:17:09;30.10;99.90
44435;DHT22;30138;20.964;105.830;2023-04-21T18:22:18;30.00;99.90
44435;DHT22;30138;20.964;105.830;2023-04-21T18:27:26;30.00;99.90
44435;DHT22;30138;20.964;105.830;2023-04-21T18:32:33;30.00;99.90
44435;DHT22;30138;20.964;105.830;2023-04-21T18:37:42;30.00;99.90
44435;DHT22;30138;20.964;105.830;2023-04-21T18:42:48;30.00;99.90
44435;DHT22;30138;20.964;105.830;2023-04-21T18:47:56;30.00;99.90
44435;DHT22;30138;20.964;105.830;2023-04-21T18:53:05;30.00;99.90
44435;DHT22;30138;20.964;105.830;2023-04-21T18:58:14;29.90;99.90
44435;DHT22;30138;20.964;105.830;2023-04-21T19:03:21;29.90;99.90
44435;DHT22;30138;20.964;105.830;2023-04-21T19:08:29;29.90;99.90
44435;DHT22;30138;20.964;105.830;2023-04-21T19:13:36;29.90;99.90
44435;DHT22;30138;20.964;105.830;2023-04-21T19:18:43;29.90;99.90
44435;DHT22;30138;20.964;105.830;2023-04-21T19:23:52;29.90;99.90
44435;DHT22;30138;20.964;105.830;2023-04-21T19:28:59;29.90;99.90
44435;DHT22;30138;20.964;105.830;2023-04-21T19:34:06;29.80;99.90
44435;DHT22;30138;20.964;105.830;2023-04-21T19:39:15;29.80;99.90
44435;DHT22;30138;20.964;105.830;2023-04-21T19:44:22;29.80;99.90
44435;DHT22;30138;20.964;105.830;2023-04-21T19:49:29;29.80;99.90
44435;DHT22;30138;20.964;105.830;2023-04-21T19:54:38;29.80;99.90
44435;DHT22;30138;20.964;105.830;2023-04-21T19:59:46;29.80;99.90
44435;DHT22;30138;20.964;105.830;2023-04-21T20:04:54;29.80;99.90
44435;DHT22;30138;20.964;105.830;2023-04-21T20:10:03;29.80;99.90
44435;DHT22;30138;20.964;105.830;2023-04-21T20:15:13;29.80;99.90
44435;DHT22;30138;20.964;105.830;2023-04-21T20:20:21;29.80;99.90
44435;DHT22;30138;20.964;105.830;2023-04-21T20:25:29;29.80;99.90
44435;DHT22;30138;20.964;105.830;2023-04-21T20:30:36;29.70;99.90
44435;DHT22;30138;20.964;105.830;2023-04-21T20:35:44;29.70;99.90
44435;DHT22;30138;20.964;105.830;2023-04-21T20:40:53;29.70;99.90
44435;DHT22;30138;20.964;105.830;2023-04-21T20:46:00;29.70;99.90
44435;DHT22;30138;20.964;105.830;2023-04-21T20:51:07;29.70;99.90
44435;DHT22;30138;20.964;105.830;2023-04-21T20:56:17;29.70;99.90
44435;DHT22;30138;20.964;105.830;2023-04-21T21:01:24;29.70;99.90
44435;DHT22;30138;20.964;105.830;2023-04-21T21:06:33;29.70;99.90
44435;DHT22;30138;20.964;105.830;2023-04-21T21:11:43;29.70;99.90
44435;DHT22;30138;20.964;105.830;2023-04-21T21:16:51;29.70;99.90
44435;DHT22;30138;20.964;105.830;2023-04-21T21:21:58;29.70;99.90
44435;DHT22;30138;20.964;105.830;2023-04-21T21:27:08;29.60;99.90
44435;DHT22;30138;20.964;105.830;2023-04-21T21:32:14;29.60;99.90
44435;DHT22;30138;20.964;105.830;2023-04-21T21:37:21;29.60;99.90
44435;DHT22;30138;20.964;105.830;2023-04-21T21:42:30;29.60;99.90
44435;DHT22;30138;20.964;105.830;2023-04-21T21:47:37;29.60;99.90
44435;DHT22;30138;20.964;105.830;2023-04-21T21:52:45;29.60;99.90
44435;DHT22;30138;20.964;105.830;2023-04-21T21:57:54;29.60;99.90
44435;DHT22;30138;20.964;105.830;2023-04-21T22:03:05;29.60;99.90
44435;DHT22;30138;20.964;105.830;2023-04-21T22:08:11;29.60;99.90
44435;DHT22;30138;20.964;105.830;2023-04-21T22:13:21;29.60;99.90
44435;DHT22;30138;20.964;105.830;2023-04-21T22:18:27;29.60;99.90
44435;DHT22;30138;20.964;105.830;2023-04-21T22:23:34;29.60;99.90
44435;DHT22;30138;20.964;105.830;2023-04-21T22:28:43;29.60;99.90
44435;DHT22;30138;20.964;105.830;2023-04-21T22:33:51;29.60;99.90
44435;DHT22;30138;20.964;105.830;2023-04-21T22:38:58;29.60;99.90
44435;DHT22;30138;20.964;105.830;2023-04-21T22:44:09;29.60;99.90
44435;DHT22;30138;20.964;105.830;2023-04-21T22:49:17;29.50;99.90
44435;DHT22;30138;20.964;105.830;2023-04-21T22:54:24;29.50;99.90
44435;DHT22;30138;20.964;105.830;2023-04-21T22:59:34;29.50;99.90
44435;DHT22;30138;20.964;105.830;2023-04-21T23:04:41;29.60;99.90
44435;DHT22;30138;20.964;105.830;2023-04-21T23:09:47;29.50;99.90
44435;DHT22;30138;20.964;105.830;2023-04-21T23:14:57;29.50;99.90
44435;DHT22;30138;20.964;105.830;2023-04-21T23:20:05;29.50;99.90
44435;DHT22;30138;20.964;105.830;2023-04-21T23:25:12;29.50;99.90
44435;DHT22;30138;20.964;105.830;2023-04-21T23:30:21;29.50;99.90
44435;DHT22;30138;20.964;105.830;2023-04-21T23:35:28;29.50;99.90
44435;DHT22;30138;20.964;105.830;2023-04-21T23:40:36;29.50;99.90
44435;DHT22;30138;20.964;105.830;2023-04-21T23:45:46;29.50;99.90
44435;DHT22;30138;20.964;105.830;2023-04-21T23:50:54;29.50;99.90
44435;DHT22;30138;20.964;105.830;2023-04-21T23:56:01;29.50;99.90
